Time;durP1;ratioP1;P1;durP2;ratioP2;P2;SDS_P1;SDS_P2;PMS_P1;PMS_P2;Temp;Humidity;BMP_temperature;BMP_pressure;BME280_temperature;BME280_humidity;BME280_pressure;Samples;Min_cycle;Max_cycle;Signal;HPM_P1;HPM_P2
2023/10/08 00:01:50;;;;;;;;;;;;;;;8.39;61.36;101028.85;105809;1260;72392;-78
2023/10/08 00:04:20;;;;;;;;;;;;;;;8.35;61.42;101031.48;105600;1261;124414;-78
2023/10/08 00:06:47;;;;;;;;;;;;;;;8.32;61.47;101033.66;105768;1262;61253;-79
2023/10/08 00:09:15;;;;;;;;;;;;;;;8.30;61.48;101040.55;105762;1260;73154;-79
2023/10/08 00:11:42;;;;;;;;;;;;;;;8.25;61.48;101044.56;105704;1262;124000;-79
2023/10/08 00:14:10;;;;;;;;;;;;;;;8.20;61.56;101046.10;105787;1261;71826;-78
2023/10/08 00:16:40;;;;;;;;;;;;;;;8.13;61.55;101046.54;105724;1260;123951;-80
2023/10/08 00:19:13;;;;;;;;;;;;;;;8.06;61.64;101047.31;105684;1260;61382;-79
2023/10/08 00:21:40;;;;;;;;;;;;;;;8.00;61.72;101044.81;105716;1262;124272;-79
2023/10/08 00:24:07;;;;;;;;;;;;;;;7.93;61.75;101044.36;108498;1259;66346;-80
2023/10/08 00:26:35;;;;;;;;;;;;;;;7.89;61.82;101048.40;105689;1259;72735;-79
2023/10/08 00:29:15;;;;;;;;;;;;;;;7.85;61.79;101053.80;105645;1263;124057;-79
2023/10/08 00:31:44;;;;;;;;;;;;;;;7.78;61.83;101055.98;105864;1262;61183;-77
2023/10/08 00:34:12;;;;;;;;;;;;;;;7.72;61.85;101059.22;106287;1258;124051;-80
2023/10/08 00:36:43;;;;;;;;;;;;;;;7.68;61.87;101063.06;108917;1258;64812;-78
2023/10/08 00:39:22;;;;;;;;;;;;;;;7.63;61.94;101066.52;106961;1259;71441;-78
2023/10/08 00:41:50;;;;;;;;;;;;;;;7.57;61.96;101065.23;105676;1263;123976;-79
2023/10/08 00:44:29;;;;;;;;;;;;;;;7.51;62.03;101065.53;105810;1259;61356;-77
2023/10/08 00:46:56;;;;;;;;;;;;;;;7.47;62.07;101071.79;105744;1260;124136;-78
2023/10/08 00:57:23;;;;;;;;;;;;;;;7.29;62.20;101086.73;105830;1259;61294;-78
2023/10/08 00:59:57;;;;;;;;;;;;;;;7.23;62.15;101087.52;106827;1261;124243;-78
2023/10/08 01:02:27;;;;;;;;;;;;;;;7.18;62.24;101092.00;105720;1260;66041;-78
2023/10/08 01:04:57;;;;;;;;;;;;;;;7.13;62.29;101089.55;108818;1259;124447;-78
2023/10/08 01:07:24;;;;;;;;;;;;;;;7.10;62.35;101100.04;108801;1259;59034;-78
2023/10/08 01:09:51;;;;;;;;;;;;;;;7.06;62.43;101098.98;108827;1259;124628;-79
2023/10/08 01:17:48;;;;;;;;;;;;;;;6.91;62.82;101103.02;105639;1262;123991;-78
2023/10/08 01:23:04;;;;;;;;;;;;;;;6.81;62.87;101111.13;105732;1261;123893;-78
2023/10/08 01:25:30;;;;;;;;;;;;;;;6.76;62.83;101113.33;105621;1260;74801;-78
2023/10/08 01:28:09;;;;;;;;;;;;;;;6.72;62.84;101110.36;105588;1260;125121;-78
2023/10/08 01:30:41;;;;;;;;;;;;;;;6.68;62.84;101116.98;105701;1260;73025;-78
2023/10/08 01:33:11;;;;;;;;;;;;;;;6.64;62.82;101120.64;105795;1263;61328;-78
2023/10/08 01:35:38;;;;;;;;;;;;;;;6.61;62.75;101127.83;105803;1259;124123;-78
2023/10/08 01:38:06;;;;;;;;;;;;;;;6.58;62.62;101133.44;105623;1260;73951;-79
2023/10/08 01:40:33;;;;;;;;;;;;;;;6.57;62.62;101135.67;106764;1259;124182;-79
2023/10/08 01:42:59;;;;;;;;;;;;;;;6.55;62.47;101137.14;105735;1260;71382;-78
2023/10/08 01:45:26;;;;;;;;;;;;;;;6.52;62.50;101140.84;105880;1262;61232;-79
2023/10/08 01:47:54;;;;;;;;;;;;;;;6.49;62.39;101142.21;105684;1257;124092;-79
2023/10/08 01:50:21;;;;;;;;;;;;;;;6.44;62.28;101147.92;108848;1263;74723;-79
2023/10/08 01:52:48;;;;;;;;;;;;;;;6.40;62.37;101150.55;108900;1258;124024;-79
2023/10/08 01:55:19;;;;;;;;;;;;;;;6.37;62.28;101156.16;108807;1258;71966;-79
2023/10/08 01:57:46;;;;;;;;;;;;;;;6.34;62.25;101163.52;106817;1260;124246;-78
2023/10/08 02:00:19;;;;;;;;;;;;;;;6.30;62.35;101167.30;105639;1264;61369;-79
2023/10/08 02:02:46;;;;;;;;;;;;;;;6.26;62.33;101174.09;105842;1262;73612;-78
2023/10/08 02:05:15;;;;;;;;;;;;;;;6.21;62.49;101176.48;105696;1259;124464;-78
2023/10/08 02:07:45;;;;;;;;;;;;;;;6.17;62.47;101180.25;105814;1260;72816;-79
2023/10/08 02:10:13;;;;;;;;;;;;;;;6.12;62.59;101179.67;105752;1259;124281;-79
2023/10/08 02:12:43;;;;;;;;;;;;;;;6.07;62.71;101179.38;105707;1259;61381;-79
2023/10/08 02:15:13;;;;;;;;;;;;;;;6.04;62.58;101182.40;105585;1259;73405;-78
2023/10/08 02:17:40;;;;;;;;;;;;;;;6.00;62.61;101185.69;105688;1260;124131;-79
2023/10/08 02:20:06;;;;;;;;;;;;;;;5.94;62.69;101185.39;105639;1261;72502;-78
2023/10/08 02:22:33;;;;;;;;;;;;;;;5.90;62.70;101189.31;105757;1262;124004;-78
2023/10/08 02:25:03;;;;;;;;;;;;;;;5.86;62.72;101192.25;105744;1260;61640;-78
2023/10/08 02:27:32;;;;;;;;;;;;;;;5.81;62.67;101197.96;105756;1262;74616;-78
2023/10/08 02:29:59;;;;;;;;;;;;;;;5.77;62.75;101198.76;105776;1259;123716;-78
2023/10/08 02:32:26;;;;;;;;;;;;;;;5.72;62.70;101196.93;105768;1260;71868;-78
2023/10/08 02:34:53;;;;;;;;;;;;;;;5.68;62.83;101199.85;105631;1258;124080;-78
2023/10/08 02:37:20;;;;;;;;;;;;;;;5.65;62.65;101204.80;105886;1259;61292;-79
2023/10/08 02:39:46;;;;;;;;;;;;;;;5.62;62.76;101210.55;105812;1259;124249;-78
2023/10/08 02:42:14;;;;;;;;;;;;;;;5.60;62.67;101215.98;105859;1261;64152;-77
2023/10/08 02:44:41;;;;;;;;;;;;;;;5.58;62.65;101217.64;105734;1260;72727;-78
2023/10/08 02:47:09;;;;;;;;;;;;;;;5.56;62.54;101214.03;105764;1260;123888;-78
2023/10/08 02:49:36;;;;;;;;;;;;;;;5.52;62.53;101215.95;105733;1258;61283;-78
2023/10/08 02:52:04;;;;;;;;;;;;;;;5.48;62.44;101218.52;105583;1261;124071;-76
2023/10/08 02:54:36;;;;;;;;;;;;;;;5.45;62.48;101227.59;105748;1261;66061;-78
2023/10/08 02:57:04;;;;;;;;;;;;;;;5.42;62.52;101231.75;105764;1258;71368;-76
2023/10/08 02:59:40;;;;;;;;;;;;;;;5.38;62.41;101229.81;106153;1259;124208;-77
2023/10/08 03:02:13;;;;;;;;;;;;;;;5.35;62.52;101234.48;105685;1260;59360;-77
2023/10/08 03:04:40;;;;;;;;;;;;;;;5.31;62.47;101236.21;105678;1260;124392;-77
2023/10/08 03:07:11;;;;;;;;;;;;;;;5.28;62.57;101239.52;105746;1258;65647;-76
2023/10/08 03:09:42;;;;;;;;;;;;;;;5.24;62.46;101243.89;105644;1259;124377;-77
2023/10/08 03:12:10;;;;;;;;;;;;;;;5.21;62.62;101246.45;105680;1260;61327;-77
2023/10/08 03:14:49;;;;;;;;;;;;;;;5.18;62.66;101250.45;105702;1259;61391;-77
2023/10/08 03:17:20;;;;;;;;;;;;;;;5.15;62.65;101255.16;105747;1258;124017;-77
2023/10/08 03:19:46;;;;;;;;;;;;;;;5.13;62.49;101254.90;105856;1259;64705;-77
2023/10/08 03:22:13;;;;;;;;;;;;;;;5.12;62.39;101256.73;105639;1259;124629;-77
2023/10/08 03:24:44;;;;;;;;;;;;;;;5.11;62.41;101257.92;105755;1263;61359;-77
2023/10/08 03:27:15;;;;;;;;;;;;;;;5.10;62.37;101265.85;105761;1262;61264;-79
2023/10/08 03:29:42;;;;;;;;;;;;;;;5.08;62.40;101264.34;105787;1259;124326;-79
2023/10/08 03:32:13;;;;;;;;;;;;;;;5.05;62.23;101270.13;106301;1262;66331;-79
2023/10/08 03:34:43;;;;;;;;;;;;;;;5.02;62.21;101268.41;106245;1258;124327;-79
2023/10/08 03:37:11;;;;;;;;;;;;;;;4.99;62.34;101272.23;106216;1258;61420;-79
2023/10/08 03:42:23;;;;;;;;;;;;;;;4.94;62.40;101275.59;106459;1258;73380;-79
2023/10/08 03:44:52;;;;;;;;;;;;;;;4.93;62.40;101276.92;106395;1259;64776;-79
2023/10/08 03:47:19;;;;;;;;;;;;;;;4.92;62.27;101282.05;106267;1259;123880;-79
2023/10/08 03:49:46;;;;;;;;;;;;;;;4.90;62.57;101281.27;106332;1259;61282;-79
2023/10/08 03:52:15;;;;;;;;;;;;;;;4.87;62.47;101285.98;106302;1258;124040;-79
2023/10/08 03:54:48;;;;;;;;;;;;;;;4.85;62.59;101288.99;105877;1262;75777;-79
2023/10/08 03:57:28;;;;;;;;;;;;;;;4.83;62.58;101290.98;108948;1259;66052;-76
2023/10/08 03:59:58;;;;;;;;;;;;;;;4.81;62.60;101290.67;108738;1258;123791;-77
2023/10/08 04:02:41;;;;;;;;;;;;;;;4.78;62.66;101286.70;105811;1259;61381;-77
2023/10/08 04:05:21;;;;;;;;;;;;;;;4.76;62.68;101287.44;105468;1259;124315;-77
2023/10/08 04:13:08;;;;;;;;;;;;;;;4.68;62.98;101293.23;108902;1259;71840;-78
2023/10/08 04:15:40;;;;;;;;;;;;;;;4.66;62.95;101291.23;108915;1257;58867;-78
2023/10/08 04:18:08;;;;;;;;;;;;;;;4.65;63.13;101291.39;106977;1263;61357;-78
2023/10/08 04:23:04;;;;;;;;;;;;;;;4.69;63.21;101300.10;105603;1264;125154;-77
2023/10/08 04:25:32;;;;;;;;;;;;;;;4.74;63.25;101308.18;105616;1263;72705;-77
2023/10/08 04:27:58;;;;;;;;;;;;;;;4.79;63.15;101312.64;105536;1259;125446;-79
2023/10/08 04:30:32;;;;;;;;;;;;;;;4.83;63.14;101311.52;106392;1258;61304;-78
2023/10/08 04:33:06;;;;;;;;;;;;;;;4.90;63.20;101303.70;105823;1259;74702;-77
2023/10/08 04:35:48;;;;;;;;;;;;;;;4.96;63.26;101301.95;105588;1259;123850;-77
2023/10/08 04:38:17;;;;;;;;;;;;;;;5.00;63.10;101306.91;105879;1262;71147;-77
2023/10/08 04:40:53;;;;;;;;;;;;;;;5.04;63.16;101313.88;108812;1258;124454;-79
2023/10/08 04:43:25;;;;;;;;;;;;;;;5.07;63.12;101314.76;108932;1258;59018;-79
2023/10/08 04:45:52;;;;;;;;;;;;;;;5.09;63.08;101318.17;108773;1259;124647;-78
2023/10/08 04:48:21;;;;;;;;;;;;;;;5.11;62.90;101316.91;107709;1259;65403;-84
2023/10/08 04:50:58;;;;;;;;;;;;;;;5.14;62.87;101319.52;106241;1260;72739;-86
2023/10/08 04:53:32;;;;;;;;;;;;;;;5.18;62.79;101322.14;106202;1259;124068;-85
2023/10/08 04:56:02;;;;;;;;;;;;;;;5.21;62.73;101323.55;106488;1262;61164;-77
2023/10/08 04:58:33;;;;;;;;;;;;;;;5.24;62.70;101323.88;105760;1262;124084;-78
2023/10/08 05:01:17;;;;;;;;;;;;;;;5.24;62.63;101321.65;105892;1257;66454;-79
2023/10/08 05:17:03;;;;;;;;;;;;;;;5.36;62.36;101358.51;106393;1260;124390;-80
2023/10/08 05:19:50;;;;;;;;;;;;;;;5.40;62.28;101356.61;107043;1260;61246;-79
2023/10/08 05:22:18;;;;;;;;;;;;;;;5.44;62.30;101358.08;106329;1264;124411;-81
2023/10/08 05:25:05;;;;;;;;;;;;;;;5.50;62.20;101364.32;106416;1260;73613;-78
2023/10/08 05:27:56;;;;;;;;;;;;;;;5.57;62.12;101368.15;106339;1258;64691;-77
2023/10/08 05:30:53;;;;;;;;;;;;;;;5.64;62.01;101371.16;106253;1257;71414;-78
2023/10/08 05:33:28;;;;;;;;;;;;;;;5.70;61.96;101375.84;106431;1259;62751;-78
2023/10/08 05:35:56;;;;;;;;;;;;;;;5.76;61.98;101378.08;106250;1260;124887;-76
2023/10/08 05:38:34;;;;;;;;;;;;;;;5.81;61.96;101378.00;106393;1256;74449;-76
2023/10/08 06:13:02;;;;;;;;;;;;;;;6.52;61.26;101414.90;106276;1259;59592;-81
2023/10/08 06:15:45;;;;;;;;;;;;;;;6.58;61.16;101419.40;106421;1259;61339;-81
2023/10/08 06:18:14;;;;;;;;;;;;;;;6.65;61.19;101428.66;106295;1260;124611;-81
2023/10/08 06:20:43;;;;;;;;;;;;;;;6.71;61.18;101432.83;106368;1259;66310;-80
2023/10/08 06:23:12;;;;;;;;;;;;;;;6.77;61.06;101432.98;106364;1259;124561;-80
2023/10/08 06:25:45;;;;;;;;;;;;;;;6.85;61.09;101432.80;106428;1259;61398;-83
2023/10/08 06:28:25;;;;;;;;;;;;;;;6.91;60.99;101438.52;106409;1258;124487;-82
2023/10/08 06:30:59;;;;;;;;;;;;;;;6.98;61.01;101444.83;106379;1263;73832;-82
2023/10/08 06:33:30;;;;;;;;;;;;;;;7.06;60.94;101453.07;106501;1261;65355;-82
2023/10/08 06:36:13;;;;;;;;;;;;;;;7.12;60.73;101459.31;106422;1259;122904;-81
2023/10/08 06:38:40;;;;;;;;;;;;;;;7.20;60.69;101465.30;105822;1262;61283;-82
2023/10/08 06:43:49;;;;;;;;;;;;;;;7.33;60.53;101470.31;106396;1258;73698;-80
2023/10/08 06:46:18;;;;;;;;;;;;;;;7.42;60.42;101472.46;106642;1258;124610;-81
2023/10/08 06:48:45;;;;;;;;;;;;;;;7.48;60.39;101472.95;106443;1259;71040;-85
2023/10/08 06:51:17;;;;;;;;;;;;;;;7.54;60.42;101471.52;106257;1259;61372;-79
2023/10/08 06:53:44;;;;;;;;;;;;;;;7.62;60.18;101477.31;108813;1259;124023;-80
2023/10/08 06:56:15;;;;;;;;;;;;;;;7.70;60.11;101479.45;106565;1259;74401;-83
2023/10/08 06:58:48;;;;;;;;;;;;;;;7.78;60.03;101487.70;105470;1264;124081;-79
2023/10/08 07:01:21;;;;;;;;;;;;;;;7.86;59.97;101489.14;105825;1260;71475;-79
2023/10/08 07:03:51;;;;;;;;;;;;;;;7.94;59.75;101495.46;106961;1259;61308;-80
2023/10/08 07:06:31;;;;;;;;;;;;;;;8.03;59.52;101508.99;105961;1260;61957;-80
2023/10/08 07:08:59;;;;;;;;;;;;;;;8.12;59.37;101509.60;105819;1260;74727;-80
2023/10/08 07:11:29;;;;;;;;;;;;;;;8.21;59.28;101512.42;108376;1259;124279;-80
2023/10/08 07:13:56;;;;;;;;;;;;;;;8.28;59.06;101517.67;105766;1259;72655;-80
2023/10/08 07:16:28;;;;;;;;;;;;;;;8.36;58.92;101519.43;105573;1259;125237;-79
2023/10/08 07:19:01;;;;;;;;;;;;;;;8.44;58.83;101519.80;105735;1258;61277;-79
2023/10/08 07:21:44;;;;;;;;;;;;;;;8.51;58.53;101525.94;105694;1259;74346;-79
2023/10/08 07:24:17;;;;;;;;;;;;;;;8.59;58.01;101521.90;105671;1260;123737;-79
2023/10/08 07:26:46;;;;;;;;;;;;;;;8.65;58.04;101515.70;105753;1259;70329;-79
2023/10/08 07:29:16;;;;;;;;;;;;;;;8.70;57.76;101520.17;106348;1259;127255;-80
2023/10/08 07:31:48;;;;;;;;;;;;;;;8.77;57.65;101525.88;105712;1260;64483;-80
2023/10/08 07:34:25;;;;;;;;;;;;;;;8.82;57.47;101532.77;105651;1263;124272;-82
2023/10/08 07:36:52;;;;;;;;;;;;;;;8.89;57.03;101533.92;106403;1259;65994;-83
2023/10/08 07:42:05;;;;;;;;;;;;;;;9.01;56.47;101537.27;106158;1258;124302;-83
2023/10/08 07:44:31;;;;;;;;;;;;;;;9.08;56.12;101549.98;106310;1259;61298;-83
2023/10/08 07:46:59;;;;;;;;;;;;;;;9.14;55.90;101543.09;106175;1259;125614;-88
2023/10/08 07:49:29;;;;;;;;;;;;;;;9.20;55.41;101557.01;106496;1259;66051;-85
2023/10/08 07:51:57;;;;;;;;;;;;;;;9.25;54.72;101561.05;106302;1258;125364;-86
2023/10/08 07:54:24;;;;;;;;;;;;;;;9.30;54.77;101549.89;106383;1259;61284;-79
2023/10/08 07:57:09;;;;;;;;;;;;;;;9.35;54.61;101551.67;105949;1258;61217;-80
2023/10/08 07:59:41;;;;;;;;;;;;;;;9.40;54.27;101558.17;106459;1258;124079;-79
2023/10/08 08:02:11;;;;;;;;;;;;;;;9.44;54.23;101562.90;106834;1259;66053;-82
2023/10/08 08:04:39;;;;;;;;;;;;;;;9.49;54.04;101571.73;106337;1259;124926;-79
2023/10/08 08:07:06;;;;;;;;;;;;;;;9.54;53.46;101572.48;106537;1258;61195;-79
2023/10/08 08:09:37;;;;;;;;;;;;;;;9.60;53.35;101574.45;106417;1264;61311;-79
2023/10/08 08:12:07;;;;;;;;;;;;;;;9.65;53.11;101587.28;106500;1259;124995;-78
2023/10/08 08:14:36;;;;;;;;;;;;;;;9.70;52.99;101583.65;106543;1259;66128;-78
2023/10/08 08:17:13;;;;;;;;;;;;;;;9.74;52.22;101581.87;105837;1262;124161;-78
2023/10/08 08:19:52;;;;;;;;;;;;;;;9.77;50.94;101595.33;106713;1259;61975;-78
2023/10/08 08:22:22;;;;;;;;;;;;;;;9.78;50.00;101592.56;106143;1259;124387;-75
2023/10/08 08:24:53;;;;;;;;;;;;;;;9.81;50.87;101589.52;105840;1259;73429;-76
2023/10/08 08:27:31;;;;;;;;;;;;;;;9.86;51.11;101596.23;105756;1259;64643;-75
2023/10/08 08:30:09;;;;;;;;;;;;;;;9.93;50.45;101595.65;105640;1260;124100;-85
2023/10/08 08:32:39;;;;;;;;;;;;;;;9.96;48.79;101611.36;106396;1257;61156;-91
2023/10/08 08:35:07;;;;;;;;;;;;;;;9.97;49.03;101622.11;106551;1259;124200;-81
2023/10/08 08:37:35;;;;;;;;;;;;;;;9.99;48.59;101619.38;105764;1259;75163;-78
2023/10/08 08:40:08;;;;;;;;;;;;;;;10.04;48.96;101624.49;105666;1260;124646;-78
2023/10/08 08:42:37;;;;;;;;;;;;;;;10.08;48.68;101622.90;105900;1259;71625;-78
2023/10/08 08:45:08;;;;;;;;;;;;;;;10.10;48.15;101630.20;105998;1260;61458;-78
2023/10/08 08:47:35;;;;;;;;;;;;;;;10.14;48.53;101619.79;108653;1259;125463;-78
2023/10/08 08:50:08;;;;;;;;;;;;;;;10.16;49.02;101609.89;108894;1258;75185;-78
2023/10/08 08:52:38;;;;;;;;;;;;;;;10.22;49.22;101609.63;108415;1260;124994;-78
2023/10/08 08:55:09;;;;;;;;;;;;;;;10.28;49.14;101604.42;106031;1259;72686;-77
2023/10/08 08:57:39;;;;;;;;;;;;;;;10.34;48.99;101608.88;106598;1259;59250;-79
2023/10/08 09:00:10;;;;;;;;;;;;;;;10.37;48.37;101617.23;105800;1259;124684;-77
2023/10/08 09:02:37;;;;;;;;;;;;;;;10.38;48.32;101608.02;105813;1265;75105;-77
2023/10/08 09:05:13;;;;;;;;;;;;;;;10.41;48.15;101607.21;105995;1262;124623;-78
2023/10/08 09:07:56;;;;;;;;;;;;;;;10.42;48.29;101613.58;105930;1260;71427;-80
2023/10/08 09:10:28;;;;;;;;;;;;;;;10.44;48.37;101611.93;105584;1264;124929;-78
2023/10/08 09:12:59;;;;;;;;;;;;;;;10.49;48.34;101611.77;105815;1262;61343;-78
2023/10/08 09:15:26;;;;;;;;;;;;;;;10.54;47.94;101624.58;105854;1263;75674;-78
2023/10/08 09:17:54;;;;;;;;;;;;;;;10.55;47.08;101630.41;105734;1259;125160;-79
2023/10/08 09:20:21;;;;;;;;;;;;;;;10.58;47.54;101619.84;106862;1259;72088;-79
2023/10/08 09:23:12;;;;;;;;;;;;;;;10.61;46.26;101631.70;105762;1262;124443;-82
2023/10/08 09:25:40;;;;;;;;;;;;;;;10.61;45.96;101635.39;106452;1262;61267;-88
2023/10/08 09:28:12;;;;;;;;;;;;;;;10.65;46.69;101633.28;106338;1259;124961;-83
2023/10/08 09:30:39;;;;;;;;;;;;;;;10.71;46.44;101639.48;106481;1258;66298;-82
2023/10/08 09:33:07;;;;;;;;;;;;;;;10.74;46.28;101639.59;106548;1258;73199;-89
2023/10/08 09:35:34;;;;;;;;;;;;;;;10.77;46.55;101638.27;106280;1259;124220;-81
2023/10/08 09:38:02;;;;;;;;;;;;;;;10.81;46.50;101643.19;106366;1258;61124;-84
2023/10/08 09:40:29;;;;;;;;;;;;;;;10.84;46.34;101651.57;106410;1260;123935;-80
2023/10/08 09:42:56;;;;;;;;;;;;;;;10.84;45.71;101652.59;106365;1260;66129;-86
2023/10/08 09:45:22;;;;;;;;;;;;;;;10.83;45.64;101668.20;106423;1257;71185;-89
2023/10/08 09:47:53;;;;;;;;;;;;;;;10.83;45.67;101661.89;106281;1260;127402;-83
2023/10/08 09:50:30;;;;;;;;;;;;;;;10.84;45.75;101664.38;106383;1260;61137;-87
2023/10/08 09:53:22;;;;;;;;;;;;;;;10.83;44.94;101684.73;106280;1260;124884;-90
2023/10/08 09:55:49;;;;;;;;;;;;;;;10.78;44.58;101668.38;106439;1263;66311;-88
2023/10/08 09:58:16;;;;;;;;;;;;;;;10.78;44.48;101676.24;106403;1259;124548;-85
2023/10/08 10:00:44;;;;;;;;;;;;;;;10.78;43.86;101688.91;106542;1257;61295;-78
2023/10/08 10:03:12;;;;;;;;;;;;;;;10.76;43.58;101689.69;106350;1259;61083;-77
2023/10/08 10:05:39;;;;;;;;;;;;;;;10.72;43.82;101687.09;105697;1258;124447;-78
2023/10/08 10:08:09;;;;;;;;;;;;;;;10.72;43.75;101690.04;105713;1260;66289;-76
2023/10/08 10:10:39;;;;;;;;;;;;;;;10.73;44.54;101684.46;108774;1260;124982;-77
2023/10/08 10:13:09;;;;;;;;;;;;;;;10.76;44.84;101689.70;108838;1258;59310;-77
2023/10/08 10:15:37;;;;;;;;;;;;;;;10.81;44.11;101705.15;106605;1260;61154;-77
2023/10/08 10:18:23;;;;;;;;;;;;;;;10.82;44.02;101695.21;105666;1260;124677;-76
2023/10/08 10:20:54;;;;;;;;;;;;;;;10.84;44.11;101702.66;105816;1262;65266;-77
2023/10/08 10:23:36;;;;;;;;;;;;;;;10.85;43.61;101712.55;105592;1263;124713;-77
2023/10/08 10:26:03;;;;;;;;;;;;;;;10.84;43.86;101707.59;105801;1257;61288;-77
2023/10/08 10:28:30;;;;;;;;;;;;;;;10.85;43.95;101715.88;105696;1259;124901;-76
2023/10/08 10:30:57;;;;;;;;;;;;;;;10.86;42.89;101718.36;105770;1257;74677;-80
2023/10/08 10:33:31;;;;;;;;;;;;;;;10.83;43.22;101725.79;105992;1260;66028;-81
2023/10/08 10:36:00;;;;;;;;;;;;;;;10.82;43.37;101720.30;106410;1259;124421;-80
2023/10/08 10:38:27;;;;;;;;;;;;;;;10.84;43.76;101709.48;106495;1262;61190;-81
2023/10/08 10:40:56;;;;;;;;;;;;;;;10.88;43.90;101720.20;106387;1262;124328;-80
2023/10/08 10:43:33;;;;;;;;;;;;;;;10.93;44.07;101718.96;108145;1260;74169;-81
2023/10/08 10:46:24;;;;;;;;;;;;;;;10.97;43.95;101721.60;106294;1262;125146;-81
2023/10/08 10:49:03;;;;;;;;;;;;;;;11.01;43.13;101729.98;106419;1263;72750;-82
2023/10/08 10:51:29;;;;;;;;;;;;;;;11.01;42.50;101731.04;106557;1257;61234;-79
2023/10/08 10:54:07;;;;;;;;;;;;;;;11.00;41.99;101740.15;106475;1260;124223;-78
2023/10/08 10:56:40;;;;;;;;;;;;;;;10.97;42.09;101737.41;106763;1259;74793;-77
2023/10/08 10:59:18;;;;;;;;;;;;;;;10.96;41.78;101740.89;106533;1260;124797;-77
2023/10/08 11:01:52;;;;;;;;;;;;;;;10.96;41.75;101748.79;106548;1260;71910;-77
2023/10/08 11:04:19;;;;;;;;;;;;;;;10.95;41.61;101748.58;106807;1263;125584;-78
2023/10/08 11:06:46;;;;;;;;;;;;;;;10.96;42.05;101756.48;106816;1261;61152;-78
2023/10/08 11:09:23;;;;;;;;;;;;;;;10.95;41.61;101763.14;106796;1262;73385;-78
2023/10/08 11:11:54;;;;;;;;;;;;;;;10.93;41.87;101769.02;106668;1259;124651;-78
2023/10/08 11:14:21;;;;;;;;;;;;;;;10.94;42.33;101775.76;106747;1262;71514;-78
2023/10/08 11:16:48;;;;;;;;;;;;;;;10.97;42.69;101782.36;106277;1262;124621;-78
2023/10/08 11:19:15;;;;;;;;;;;;;;;10.99;42.52;101769.43;105768;1261;61194;-78
2023/10/08 11:21:53;;;;;;;;;;;;;;;11.01;42.80;101768.80;105677;1260;72096;-78
2023/10/08 11:24:27;;;;;;;;;;;;;;;11.05;42.97;101775.86;106283;1262;66641;-79
2023/10/08 11:29:39;;;;;;;;;;;;;;;11.14;42.67;101768.96;106350;1262;125592;-78
2023/10/08 11:32:07;;;;;;;;;;;;;;;11.09;42.19;101773.18;106324;1257;61383;-78
2023/10/08 11:34:39;;;;;;;;;;;;;;;11.03;42.27;101776.47;106374;1260;124611;-78
2023/10/08 11:37:19;;;;;;;;;;;;;;;11.00;42.97;101765.44;106349;1264;64351;-80
2023/10/08 11:39:46;;;;;;;;;;;;;;;11.03;43.18;101771.90;106570;1260;72730;-80
2023/10/08 11:45:17;;;;;;;;;;;;;;;11.09;43.25;101778.10;106543;1258;61121;-80
2023/10/08 11:47:55;;;;;;;;;;;;;;;11.06;42.90;101793.08;105781;1259;124249;-80
2023/10/08 11:50:30;;;;;;;;;;;;;;;11.00;43.14;101789.31;105827;1262;66856;-81
2023/10/08 11:53:05;;;;;;;;;;;;;;;10.98;43.34;101787.15;106755;1263;124914;-81
2023/10/08 11:55:35;;;;;;;;;;;;;;;10.96;43.29;101791.44;105821;1262;61263;-79
2023/10/08 11:58:09;;;;;;;;;;;;;;;10.90;43.57;101792.80;105957;1260;124587;-80
2023/10/08 12:00:45;;;;;;;;;;;;;;;10.87;43.36;101799.70;106360;1260;73168;-80
2023/10/08 12:03:12;;;;;;;;;;;;;;;10.86;43.31;101799.33;106441;1260;66502;-80
2023/10/08 12:05:47;;;;;;;;;;;;;;;10.88;43.19;101801.14;105899;1258;124275;-82
2023/10/08 12:08:16;;;;;;;;;;;;;;;10.91;43.31;101798.79;106400;1262;61259;-78
2023/10/08 12:10:43;;;;;;;;;;;;;;;10.94;43.37;101802.06;105790;1258;124522;-78
2023/10/08 12:13:10;;;;;;;;;;;;;;;10.95;43.36;101812.11;105854;1260;73319;-78
2023/10/08 12:15:41;;;;;;;;;;;;;;;10.94;43.31;101821.41;105784;1261;65529;-77
2023/10/08 12:18:08;;;;;;;;;;;;;;;10.93;42.91;101822.59;105591;1260;124594;-79
2023/10/08 12:20:37;;;;;;;;;;;;;;;10.91;42.92;101829.52;105686;1258;61272;-78
2023/10/08 12:23:04;;;;;;;;;;;;;;;10.85;42.58;101820.86;105572;1258;124683;-78
2023/10/08 12:25:34;;;;;;;;;;;;;;;10.81;42.60;101827.55;105730;1260;75275;-78
2023/10/08 12:28:06;;;;;;;;;;;;;;;10.81;42.06;101833.52;105683;1261;124798;-79
2023/10/08 12:30:41;;;;;;;;;;;;;;;10.79;42.08;101829.58;105708;1259;72747;-78
2023/10/08 12:33:09;;;;;;;;;;;;;;;10.78;42.44;101830.92;105601;1263;61295;-78
2023/10/08 12:35:37;;;;;;;;;;;;;;;10.79;42.34;101823.07;106304;1261;124413;-78
2023/10/08 12:38:05;;;;;;;;;;;;;;;10.79;42.60;101835.91;106382;1259;73350;-78
2023/10/08 12:40:53;;;;;;;;;;;;;;;10.82;42.75;101828.12;106320;1262;124548;-78
2023/10/08 12:43:19;;;;;;;;;;;;;;;10.83;42.35;101820.42;106384;1259;72660;-78
2023/10/08 12:45:51;;;;;;;;;;;;;;;10.80;42.41;101823.50;106454;1262;61241;-78
2023/10/08 12:48:21;;;;;;;;;;;;;;;10.79;42.09;101836.60;106352;1262;124280;-78
2023/10/08 12:50:53;;;;;;;;;;;;;;;10.77;42.48;101829.82;106644;1259;73083;-78
2023/10/08 12:53:23;;;;;;;;;;;;;;;10.78;42.61;101833.77;106422;1260;126559;-78
2023/10/08 12:55:53;;;;;;;;;;;;;;;10.79;41.96;101841.14;106483;1260;73051;-78
2023/10/08 12:58:23;;;;;;;;;;;;;;;10.77;41.77;101824.04;106346;1260;124462;-78
2023/10/08 13:00:57;;;;;;;;;;;;;;;10.75;42.10;101818.16;106536;1262;61254;-80
2023/10/08 13:03:24;;;;;;;;;;;;;;;10.74;41.92;101834.29;106432;1260;73390;-80
2023/10/08 13:05:54;;;;;;;;;;;;;;;10.72;42.25;101825.42;106382;1264;124603;-81
2023/10/08 13:08:21;;;;;;;;;;;;;;;10.73;42.54;101825.27;106542;1263;71438;-82
2023/10/08 13:10:47;;;;;;;;;;;;;;;10.74;42.65;101822.17;106379;1262;124341;-81
2023/10/08 13:13:14;;;;;;;;;;;;;;;10.76;42.73;101815.38;106474;1263;61385;-79
2023/10/08 13:15:41;;;;;;;;;;;;;;;10.79;42.92;101826.58;105737;1259;74697;-81
2023/10/08 13:18:08;;;;;;;;;;;;;;;10.83;42.97;101829.04;105758;1259;124373;-82
2023/10/08 13:20:35;;;;;;;;;;;;;;;10.83;42.98;101827.27;106410;1263;72007;-80
2023/10/08 13:23:01;;;;;;;;;;;;;;;10.82;42.92;101829.70;106375;1258;124861;-80
2023/10/08 13:25:30;;;;;;;;;;;;;;;10.81;42.88;101828.06;105750;1262;61266;-80
2023/10/08 13:27:57;;;;;;;;;;;;;;;10.79;43.02;101832.93;105646;1262;124526;-81
2023/10/08 13:30:23;;;;;;;;;;;;;;;10.78;43.23;101842.01;105790;1259;66732;-80
2023/10/08 13:32:51;;;;;;;;;;;;;;;10.76;43.08;101846.14;105759;1260;72658;-80
2023/10/08 13:35:18;;;;;;;;;;;;;;;10.70;43.38;101850.98;105733;1262;124413;-80
2023/10/08 13:37:47;;;;;;;;;;;;;;;10.66;43.59;101848.35;105771;1263;61269;-80
2023/10/08 13:40:15;;;;;;;;;;;;;;;10.63;43.82;101840.17;105692;1262;124549;-79
2023/10/08 13:42:42;;;;;;;;;;;;;;;10.64;43.93;101841.59;106078;1262;65529;-80
2023/10/08 13:45:09;;;;;;;;;;;;;;;10.64;44.08;101846.66;105735;1262;73878;-80
2023/10/08 13:47:39;;;;;;;;;;;;;;;10.61;43.76;101846.58;105641;1262;124595;-81
2023/10/08 13:50:10;;;;;;;;;;;;;;;10.58;43.85;101845.04;105689;1265;61244;-80
2023/10/08 13:52:39;;;;;;;;;;;;;;;10.57;44.24;101850.96;106296;1262;124858;-81
2023/10/08 13:55:06;;;;;;;;;;;;;;;10.57;44.37;101858.16;106282;1261;65138;-81
2023/10/08 13:57:33;;;;;;;;;;;;;;;10.57;44.50;101859.17;106347;1263;71122;-81
2023/10/08 14:00:01;;;;;;;;;;;;;;;10.57;44.75;101866.55;106317;1263;124704;-80
2023/10/08 14:02:30;;;;;;;;;;;;;;;10.56;44.76;101868.97;105852;1260;61253;-81
2023/10/08 14:04:57;;;;;;;;;;;;;;;10.53;44.89;101868.67;105638;1262;124676;-80
2023/10/08 14:07:24;;;;;;;;;;;;;;;10.52;45.17;101871.95;105793;1263;66255;-80
2023/10/08 14:09:53;;;;;;;;;;;;;;;10.49;45.17;101875.36;105706;1263;72691;-81